sensor_id;sensor_type;location;lat;lon;timestamp;P1;durP1;ratioP1;P2;durP2;ratioP2
72478;SDS011;60658;52.246;5.258;2022-07-25T00:00:27;6.45;;;3.78;;
72478;SDS011;60658;52.246;5.258;2022-07-25T00:01:29;5.30;;;4.07;;
72478;SDS011;60658;52.246;5.258;2022-07-25T00:02:30;6.13;;;3.63;;
72478;SDS011;60658;52.246;5.258;2022-07-25T00:03:30;6.50;;;4.05;;
72478;SDS011;60658;52.246;5.258;2022-07-25T00:04:31;4.93;;;3.42;;
72478;SDS011;60658;52.246;5.258;2022-07-25T00:05:32;5.40;;;3.60;;
72478;SDS011;60658;52.246;5.258;2022-07-25T00:06:32;5.00;;;3.72;;
72478;SDS011;60658;52.246;5.258;2022-07-25T00:07:33;5.07;;;3.70;;
72478;SDS011;60658;52.246;5.258;2022-07-25T00:08:34;5.38;;;3.90;;
72478;SDS011;60658;52.246;5.258;2022-07-25T00:09:34;6.30;;;4.10;;
72478;SDS011;60658;52.246;5.258;2022-07-25T00:10:35;4.53;;;3.70;;
72478;SDS011;60658;52.246;5.258;2022-07-25T00:11:36;4.57;;;3.53;;
72478;SDS011;60658;52.246;5.258;2022-07-25T00:12:36;6.53;;;3.80;;
72478;SDS011;60658;52.246;5.258;2022-07-25T00:13:37;5.88;;;3.67;;
72478;SDS011;60658;52.246;5.258;2022-07-25T00:14:38;5.80;;;3.92;;
72478;SDS011;60658;52.246;5.258;2022-07-25T00:15:38;5.45;;;4.03;;
72478;SDS011;60658;52.246;5.258;2022-07-25T00:16:40;5.35;;;3.83;;
72478;SDS011;60658;52.246;5.258;2022-07-25T00:17:41;4.40;;;3.90;;
72478;SDS011;60658;52.246;5.258;2022-07-25T00:18:42;5.18;;;3.70;;
72478;SDS011;60658;52.246;5.258;2022-07-25T00:19:42;4.93;;;3.95;;
72478;SDS011;60658;52.246;5.258;2022-07-25T00:20:43;7.35;;;4.07;;
72478;SDS011;60658;52.246;5.258;2022-07-25T00:21:44;5.63;;;4.20;;
72478;SDS011;60658;52.246;5.258;2022-07-25T00:22:44;5.93;;;4.18;;
72478;SDS011;60658;52.246;5.258;2022-07-25T00:23:45;5.93;;;4.03;;
72478;SDS011;60658;52.246;5.258;2022-07-25T00:24:46;4.85;;;3.90;;
72478;SDS011;60658;52.246;5.258;2022-07-25T00:25:46;6.13;;;4.20;;
72478;SDS011;60658;52.246;5.258;2022-07-25T00:26:47;4.82;;;3.75;;
72478;SDS011;60658;52.246;5.258;2022-07-25T00:27:48;5.82;;;3.90;;
72478;SDS011;60658;52.246;5.258;2022-07-25T00:28:48;5.10;;;4.13;;
72478;SDS011;60658;52.246;5.258;2022-07-25T00:29:49;9.48;;;4.13;;
72478;SDS011;60658;52.246;5.258;2022-07-25T00:30:50;5.80;;;3.75;;
72478;SDS011;60658;52.246;5.258;2022-07-25T00:31:52;6.05;;;4.00;;
72478;SDS011;60658;52.246;5.258;2022-07-25T00:32:52;5.30;;;3.90;;
72478;SDS011;60658;52.246;5.258;2022-07-25T00:33:53;5.47;;;3.97;;
72478;SDS011;60658;52.246;5.258;2022-07-25T00:34:53;4.53;;;3.67;;
72478;SDS011;60658;52.246;5.258;2022-07-25T00:35:54;5.82;;;3.95;;
72478;SDS011;60658;52.246;5.258;2022-07-25T00:36:55;6.28;;;4.10;;
72478;SDS011;60658;52.246;5.258;2022-07-25T00:37:55;5.43;;;3.83;;
72478;SDS011;60658;52.246;5.258;2022-07-25T00:38:56;7.00;;;4.30;;
72478;SDS011;60658;52.246;5.258;2022-07-25T00:39:57;4.20;;;3.47;;
72478;SDS011;60658;52.246;5.258;2022-07-25T00:41:00;5.40;;;4.47;;
72478;SDS011;60658;52.246;5.258;2022-07-25T00:42:01;5.20;;;3.90;;
72478;SDS011;60658;52.246;5.258;2022-07-25T00:43:04;4.85;;;3.90;;
72478;SDS011;60658;52.246;5.258;2022-07-25T00:44:05;5.00;;;3.88;;
72478;SDS011;60658;52.246;5.258;2022-07-25T00:45:06;6.35;;;4.53;;
72478;SDS011;60658;52.246;5.258;2022-07-25T00:46:07;6.25;;;4.00;;
72478;SDS011;60658;52.246;5.258;2022-07-25T00:47:09;4.80;;;3.58;;
72478;SDS011;60658;52.246;5.258;2022-07-25T00:48:09;5.43;;;4.30;;
72478;SDS011;60658;52.246;5.258;2022-07-25T00:49:10;4.85;;;3.80;;
72478;SDS011;60658;52.246;5.258;2022-07-25T00:50:11;4.95;;;3.92;;
72478;SDS011;60658;52.246;5.258;2022-07-25T00:51:11;6.63;;;4.72;;
72478;SDS011;60658;52.246;5.258;2022-07-25T00:52:12;5.55;;;4.43;;
72478;SDS011;60658;52.246;5.258;2022-07-25T00:53:13;6.78;;;4.03;;
72478;SDS011;60658;52.246;5.258;2022-07-25T00:54:13;6.00;;;4.28;;
72478;SDS011;60658;52.246;5.258;2022-07-25T00:55:14;7.60;;;4.47;;
72478;SDS011;60658;52.246;5.258;2022-07-25T00:56:15;7.28;;;4.60;;
72478;SDS011;60658;52.246;5.258;2022-07-25T00:57:16;5.35;;;4.18;;
72478;SDS011;60658;52.246;5.258;2022-07-25T00:58:16;6.03;;;4.57;;
72478;SDS011;60658;52.246;5.258;2022-07-25T00:59:17;6.45;;;4.57;;
72478;SDS011;60658;52.246;5.258;2022-07-25T01:00:17;6.45;;;4.15;;
72478;SDS011;60658;52.246;5.258;2022-07-25T01:01:18;5.30;;;4.25;;
72478;SDS011;60658;52.246;5.258;2022-07-25T01:02:20;5.78;;;4.13;;
72478;SDS011;60658;52.246;5.258;2022-07-25T01:03:21;9.02;;;4.20;;
72478;SDS011;60658;52.246;5.258;2022-07-25T01:04:22;6.43;;;4.30;;
72478;SDS011;60658;52.246;5.258;2022-07-25T01:05:22;5.43;;;4.10;;
72478;SDS011;60658;52.246;5.258;2022-07-25T01:06:23;6.57;;;4.30;;
72478;SDS011;60658;52.246;5.258;2022-07-25T01:07:25;5.90;;;4.13;;
72478;SDS011;60658;52.246;5.258;2022-07-25T01:08:25;6.07;;;3.85;;
72478;SDS011;60658;52.246;5.258;2022-07-25T01:09:26;5.32;;;3.80;;
72478;SDS011;60658;52.246;5.258;2022-07-25T01:10:27;7.20;;;4.25;;
72478;SDS011;60658;52.246;5.258;2022-07-25T01:11:30;5.10;;;3.70;;
72478;SDS011;60658;52.246;5.258;2022-07-25T01:12:31;7.38;;;4.30;;
72478;SDS011;60658;52.246;5.258;2022-07-25T01:13:31;6.05;;;3.92;;
72478;SDS011;60658;52.246;5.258;2022-07-25T01:14:32;5.05;;;4.40;;
72478;SDS011;60658;52.246;5.258;2022-07-25T01:15:33;5.75;;;4.20;;
72478;SDS011;60658;52.246;5.258;2022-07-25T01:16:33;7.25;;;4.25;;
72478;SDS011;60658;52.246;5.258;2022-07-25T01:17:35;6.68;;;4.30;;
72478;SDS011;60658;52.246;5.258;2022-07-25T01:18:36;6.07;;;4.20;;
72478;SDS011;60658;52.246;5.258;2022-07-25T01:19:36;5.28;;;3.90;;
72478;SDS011;60658;52.246;5.258;2022-07-25T01:20:39;5.85;;;3.95;;
72478;SDS011;60658;52.246;5.258;2022-07-25T01:21:39;6.47;;;3.90;;
72478;SDS011;60658;52.246;5.258;2022-07-25T01:22:40;6.00;;;4.28;;
72478;SDS011;60658;52.246;5.258;2022-07-25T01:23:41;6.45;;;4.32;;
72478;SDS011;60658;52.246;5.258;2022-07-25T01:24:41;8.05;;;4.13;;
72478;SDS011;60658;52.246;5.258;2022-07-25T01:25:42;5.43;;;4.07;;
72478;SDS011;60658;52.246;5.258;2022-07-25T01:26:43;5.70;;;4.05;;
72478;SDS011;60658;52.246;5.258;2022-07-25T01:27:44;6.35;;;4.22;;
72478;SDS011;60658;52.246;5.258;2022-07-25T01:28:45;4.75;;;3.83;;
72478;SDS011;60658;52.246;5.258;2022-07-25T01:29:45;6.15;;;4.28;;
72478;SDS011;60658;52.246;5.258;2022-07-25T01:30:46;6.57;;;4.57;;
72478;SDS011;60658;52.246;5.258;2022-07-25T01:31:47;6.60;;;4.55;;
72478;SDS011;60658;52.246;5.258;2022-07-25T01:32:47;6.30;;;4.15;;
72478;SDS011;60658;52.246;5.258;2022-07-25T01:33:48;5.78;;;4.22;;
72478;SDS011;60658;52.246;5.258;2022-07-25T01:34:49;6.10;;;4.63;;
72478;SDS011;60658;52.246;5.258;2022-07-25T01:35:51;6.28;;;4.25;;
72478;SDS011;60658;52.246;5.258;2022-07-25T01:36:51;6.05;;;4.20;;
72478;SDS011;60658;52.246;5.258;2022-07-25T01:37:54;6.22;;;4.45;;
72478;SDS011;60658;52.246;5.258;2022-07-25T01:38:55;6.32;;;4.60;;
72478;SDS011;60658;52.246;5.258;2022-07-25T01:39:55;6.25;;;4.55;;
72478;SDS011;60658;52.246;5.258;2022-07-25T01:40:56;6.00;;;4.47;;
72478;SDS011;60658;52.246;5.258;2022-07-25T01:41:57;6.13;;;4.70;;
72478;SDS011;60658;52.246;5.258;2022-07-25T01:42:57;6.18;;;4.47;;
72478;SDS011;60658;52.246;5.258;2022-07-25T01:43:58;5.50;;;4.50;;
72478;SDS011;60658;52.246;5.258;2022-07-25T01:44:59;5.82;;;4.53;;
72478;SDS011;60658;52.246;5.258;2022-07-25T01:46:00;6.65;;;4.45;;
72478;SDS011;60658;52.246;5.258;2022-07-25T01:47:00;5.85;;;4.43;;
72478;SDS011;60658;52.246;5.258;2022-07-25T01:48:01;5.82;;;4.47;;
72478;SDS011;60658;52.246;5.258;2022-07-25T01:49:03;9.05;;;4.28;;
72478;SDS011;60658;52.246;5.258;2022-07-25T01:50:04;7.68;;;4.50;;
72478;SDS011;60658;52.246;5.258;2022-07-25T01:51:06;6.25;;;4.63;;
72478;SDS011;60658;52.246;5.258;2022-07-25T01:52:07;5.82;;;4.40;;
72478;SDS011;60658;52.246;5.258;2022-07-25T01:53:07;7.55;;;4.78;;
72478;SDS011;60658;52.246;5.258;2022-07-25T01:54:08;7.38;;;5.28;;
72478;SDS011;60658;52.246;5.258;2022-07-25T01:55:09;6.47;;;4.57;;
72478;SDS011;60658;52.246;5.258;2022-07-25T01:56:09;6.68;;;5.13;;
72478;SDS011;60658;52.246;5.258;2022-07-25T01:57:10;6.07;;;4.63;;
72478;SDS011;60658;52.246;5.258;2022-07-25T01:58:11;7.05;;;4.90;;
72478;SDS011;60658;52.246;5.258;2022-07-25T01:59:11;7.53;;;5.10;;
72478;SDS011;60658;52.246;5.258;2022-07-25T02:00:15;6.43;;;4.32;;
72478;SDS011;60658;52.246;5.258;2022-07-25T02:01:16;6.95;;;4.63;;
72478;SDS011;60658;52.246;5.258;2022-07-25T02:02:16;6.38;;;4.80;;
72478;SDS011;60658;52.246;5.258;2022-07-25T02:03:17;7.00;;;4.90;;
72478;SDS011;60658;52.246;5.258;2022-07-25T02:04:18;8.40;;;4.72;;
72478;SDS011;60658;52.246;5.258;2022-07-25T02:05:19;5.82;;;4.90;;
72478;SDS011;60658;52.246;5.258;2022-07-25T02:06:21;6.97;;;4.82;;
72478;SDS011;60658;52.246;5.258;2022-07-25T02:07:21;5.80;;;4.50;;
72478;SDS011;60658;52.246;5.258;2022-07-25T02:08:22;6.80;;;5.00;;
72478;SDS011;60658;52.246;5.258;2022-07-25T02:09:23;6.47;;;4.93;;
72478;SDS011;60658;52.246;5.258;2022-07-25T02:10:23;8.30;;;5.45;;
72478;SDS011;60658;52.246;5.258;2022-07-25T02:11:24;7.15;;;5.15;;
72478;SDS011;60658;52.246;5.258;2022-07-25T02:12:25;5.88;;;4.47;;
72478;SDS011;60658;52.246;5.258;2022-07-25T02:13:26;6.75;;;5.15;;
72478;SDS011;60658;52.246;5.258;2022-07-25T02:14:27;5.72;;;4.80;;
72478;SDS011;60658;52.246;5.258;2022-07-25T02:15:27;6.35;;;5.13;;
72478;SDS011;60658;52.246;5.258;2022-07-25T02:16:28;9.43;;;5.18;;
72478;SDS011;60658;52.246;5.258;2022-07-25T02:17:29;7.57;;;5.50;;
72478;SDS011;60658;52.246;5.258;2022-07-25T02:18:29;6.10;;;5.00;;
72478;SDS011;60658;52.246;5.258;2022-07-25T02:19:30;8.23;;;4.80;;
72478;SDS011;60658;52.246;5.258;2022-07-25T02:20:30;6.85;;;4.97;;
72478;SDS011;60658;52.246;5.258;2022-07-25T02:21:32;8.93;;;5.22;;
72478;SDS011;60658;52.246;5.258;2022-07-25T02:22:33;6.57;;;4.97;;
72478;SDS011;60658;52.246;5.258;2022-07-25T02:23:34;7.43;;;5.38;;
72478;SDS011;60658;52.246;5.258;2022-07-25T02:24:35;6.88;;;5.10;;
72478;SDS011;60658;52.246;5.258;2022-07-25T02:25:35;7.72;;;5.20;;
72478;SDS011;60658;52.246;5.258;2022-07-25T02:26:36;8.35;;;5.53;;
72478;SDS011;60658;52.246;5.258;2022-07-25T02:27:36;8.20;;;5.40;;
72478;SDS011;60658;52.246;5.258;2022-07-25T02:28:37;7.03;;;5.30;;
72478;SDS011;60658;52.246;5.258;2022-07-25T02:29:38;7.57;;;5.68;;
72478;SDS011;60658;52.246;5.258;2022-07-25T02:30:38;6.95;;;5.40;;
72478;SDS011;60658;52.246;5.258;2022-07-25T02:31:39;7.45;;;5.50;;
72478;SDS011;60658;52.246;5.258;2022-07-25T02:32:40;10.15;;;6.15;;
72478;SDS011;60658;52.246;5.258;2022-07-25T02:33:41;6.15;;;5.18;;
72478;SDS011;60658;52.246;5.258;2022-07-25T02:34:42;8.80;;;6.07;;
72478;SDS011;60658;52.246;5.258;2022-07-25T02:35:42;10.50;;;5.88;;
72478;SDS011;60658;52.246;5.258;2022-07-25T02:36:44;9.23;;;5.68;;
72478;SDS011;60658;52.246;5.258;2022-07-25T02:37:45;10.02;;;6.45;;
72478;SDS011;60658;52.246;5.258;2022-07-25T02:38:46;9.20;;;6.00;;
72478;SDS011;60658;52.246;5.258;2022-07-25T02:39:46;6.90;;;5.70;;
72478;SDS011;60658;52.246;5.258;2022-07-25T02:40:47;9.27;;;5.80;;
72478;SDS011;60658;52.246;5.258;2022-07-25T02:41:48;9.43;;;6.13;;
72478;SDS011;60658;52.246;5.258;2022-07-25T02:42:49;8.05;;;5.90;;
72478;SDS011;60658;52.246;5.258;2022-07-25T02:43:49;8.10;;;6.07;;
72478;SDS011;60658;52.246;5.258;2022-07-25T02:44:50;10.32;;;5.80;;
72478;SDS011;60658;52.246;5.258;2022-07-25T02:45:51;16.92;;;6.15;;
72478;SDS011;60658;52.246;5.258;2022-07-25T02:46:52;8.63;;;6.00;;
72478;SDS011;60658;52.246;5.258;2022-07-25T02:47:52;15.60;;;6.20;;
72478;SDS011;60658;52.246;5.258;2022-07-25T02:48:53;10.82;;;5.78;;
72478;SDS011;60658;52.246;5.258;2022-07-25T02:49:54;7.82;;;5.75;;
72478;SDS011;60658;52.246;5.258;2022-07-25T02:50:57;8.35;;;6.07;;
72478;SDS011;60658;52.246;5.258;2022-07-25T02:51:59;9.25;;;6.32;;
72478;SDS011;60658;52.246;5.258;2022-07-25T02:53:00;7.72;;;5.65;;
72478;SDS011;60658;52.246;5.258;2022-07-25T02:54:00;8.50;;;5.90;;
72478;SDS011;60658;52.246;5.258;2022-07-25T02:55:01;8.32;;;7.10;;
72478;SDS011;60658;52.246;5.258;2022-07-25T02:56:02;8.85;;;5.88;;
72478;SDS011;60658;52.246;5.258;2022-07-25T02:57:03;9.90;;;6.38;;
72478;SDS011;60658;52.246;5.258;2022-07-25T02:58:03;8.05;;;6.05;;
72478;SDS011;60658;52.246;5.258;2022-07-25T02:59:04;10.07;;;6.40;;
72478;SDS011;60658;52.246;5.258;2022-07-25T03:00:05;11.02;;;6.68;;
72478;SDS011;60658;52.246;5.258;2022-07-25T03:01:06;8.88;;;6.43;;
72478;SDS011;60658;52.246;5.258;2022-07-25T03:02:07;10.15;;;5.97;;
72478;SDS011;60658;52.246;5.258;2022-07-25T03:03:07;13.48;;;6.82;;
72478;SDS011;60658;52.246;5.258;2022-07-25T03:04:08;11.82;;;6.85;;
72478;SDS011;60658;52.246;5.258;2022-07-25T03:05:09;11.40;;;6.80;;
72478;SDS011;60658;52.246;5.258;2022-07-25T03:06:10;15.07;;;7.18;;
72478;SDS011;60658;52.246;5.258;2022-07-25T03:07:12;14.88;;;7.60;;
72478;SDS011;60658;52.246;5.258;2022-07-25T03:08:12;9.95;;;6.68;;
72478;SDS011;60658;52.246;5.258;2022-07-25T03:09:13;10.65;;;6.57;;
72478;SDS011;60658;52.246;5.258;2022-07-25T03:10:14;8.90;;;6.63;;
72478;SDS011;60658;52.246;5.258;2022-07-25T03:11:14;10.25;;;6.35;;
72478;SDS011;60658;52.246;5.258;2022-07-25T03:12:15;9.30;;;6.43;;
72478;SDS011;60658;52.246;5.258;2022-07-25T03:13:16;9.63;;;6.88;;
72478;SDS011;60658;52.246;5.258;2022-07-25T03:14:19;12.75;;;7.15;;
72478;SDS011;60658;52.246;5.258;2022-07-25T03:15:23;12.73;;;6.82;;
72478;SDS011;60658;52.246;5.258;2022-07-25T03:16:24;14.55;;;7.53;;
72478;SDS011;60658;52.246;5.258;2022-07-25T03:17:25;13.82;;;7.45;;
72478;SDS011;60658;52.246;5.258;2022-07-25T03:18:25;15.02;;;7.47;;
72478;SDS011;60658;52.246;5.258;2022-07-25T03:19:26;13.60;;;7.22;;
72478;SDS011;60658;52.246;5.258;2022-07-25T03:20:27;10.65;;;6.78;;
72478;SDS011;60658;52.246;5.258;2022-07-25T03:21:27;14.82;;;7.40;;
72478;SDS011;60658;52.246;5.258;2022-07-25T03:22:29;11.85;;;7.10;;
72478;SDS011;60658;52.246;5.258;2022-07-25T03:23:30;14.80;;;6.72;;
72478;SDS011;60658;52.246;5.258;2022-07-25T03:24:31;10.43;;;6.00;;
72478;SDS011;60658;52.246;5.258;2022-07-25T03:25:31;12.52;;;7.00;;
72478;SDS011;60658;52.246;5.258;2022-07-25T03:26:32;11.15;;;6.28;;
72478;SDS011;60658;52.246;5.258;2022-07-25T03:27:32;12.20;;;6.75;;
72478;SDS011;60658;52.246;5.258;2022-07-25T03:28:33;11.35;;;6.85;;
72478;SDS011;60658;52.246;5.258;2022-07-25T03:29:34;9.15;;;6.15;;
72478;SDS011;60658;52.246;5.258;2022-07-25T03:30:34;8.60;;;7.05;;
72478;SDS011;60658;52.246;5.258;2022-07-25T03:31:35;9.68;;;6.43;;
72478;SDS011;60658;52.246;5.258;2022-07-25T03:32:36;9.27;;;6.40;;
72478;SDS011;60658;52.246;5.258;2022-07-25T03:33:36;9.00;;;6.40;;
72478;SDS011;60658;52.246;5.258;2022-07-25T03:34:40;9.93;;;6.68;;
72478;SDS011;60658;52.246;5.258;2022-07-25T03:35:41;8.52;;;6.30;;
72478;SDS011;60658;52.246;5.258;2022-07-25T03:36:44;7.15;;;5.55;;
72478;SDS011;60658;52.246;5.258;2022-07-25T03:37:49;9.40;;;6.20;;
72478;SDS011;60658;52.246;5.258;2022-07-25T03:38:50;10.43;;;6.28;;
72478;SDS011;60658;52.246;5.258;2022-07-25T03:39:50;7.95;;;6.50;;
72478;SDS011;60658;52.246;5.258;2022-07-25T03:40:51;6.78;;;5.75;;
72478;SDS011;60658;52.246;5.258;2022-07-25T03:41:52;8.75;;;6.30;;
72478;SDS011;60658;52.246;5.258;2022-07-25T03:42:55;9.25;;;6.18;;
72478;SDS011;60658;52.246;5.258;2022-07-25T03:44:03;7.25;;;5.63;;
72478;SDS011;60658;52.246;5.258;2022-07-25T03:45:04;7.63;;;6.03;;
72478;SDS011;60658;52.246;5.258;2022-07-25T03:46:05;8.13;;;5.97;;
72478;SDS011;60658;52.246;5.258;2022-07-25T03:47:06;8.77;;;6.38;;
72478;SDS011;60658;52.246;5.258;2022-07-25T03:48:07;9.60;;;5.82;;
72478;SDS011;60658;52.246;5.258;2022-07-25T03:49:07;8.35;;;6.03;;
72478;SDS011;60658;52.246;5.258;2022-07-25T03:50:08;8.27;;;6.50;;
72478;SDS011;60658;52.246;5.258;2022-07-25T03:51:09;10.48;;;6.65;;
72478;SDS011;60658;52.246;5.258;2022-07-25T03:52:09;8.60;;;6.13;;
72478;SDS011;60658;52.246;5.258;2022-07-25T03:53:12;8.00;;;6.03;;
72478;SDS011;60658;52.246;5.258;2022-07-25T03:54:12;9.48;;;6.38;;
72478;SDS011;60658;52.246;5.258;2022-07-25T03:55:13;7.80;;;6.20;;
72478;SDS011;60658;52.246;5.258;2022-07-25T03:56:13;8.65;;;6.22;;
72478;SDS011;60658;52.246;5.258;2022-07-25T03:57:14;8.25;;;6.60;;
72478;SDS011;60658;52.246;5.258;2022-07-25T03:58:15;8.18;;;5.90;;
72478;SDS011;60658;52.246;5.258;2022-07-25T03:59:18;8.13;;;6.35;;
72478;SDS011;60658;52.246;5.258;2022-07-25T04:00:19;8.40;;;6.03;;
72478;SDS011;60658;52.246;5.258;2022-07-25T04:01:19;9.30;;;6.45;;
72478;SDS011;60658;52.246;5.258;2022-07-25T04:02:20;8.25;;;6.53;;
72478;SDS011;60658;52.246;5.258;2022-07-25T04:03:21;9.60;;;6.70;;
72478;SDS011;60658;52.246;5.258;2022-07-25T04:04:21;9.70;;;6.63;;
72478;SDS011;60658;52.246;5.258;2022-07-25T04:05:22;10.98;;;7.05;;
72478;SDS011;60658;52.246;5.258;2022-07-25T04:06:23;8.55;;;7.00;;
72478;SDS011;60658;52.246;5.258;2022-07-25T04:07:24;11.30;;;7.32;;
72478;SDS011;60658;52.246;5.258;2022-07-25T04:08:35;10.02;;;7.13;;
72478;SDS011;60658;52.246;5.258;2022-07-25T04:09:45;9.30;;;6.88;;
72478;SDS011;60658;52.246;5.258;2022-07-25T04:10:49;7.95;;;6.85;;
72478;SDS011;60658;52.246;5.258;2022-07-25T04:11:49;9.02;;;7.28;;
72478;SDS011;60658;52.246;5.258;2022-07-25T04:12:55;12.27;;;7.95;;
72478;SDS011;60658;52.246;5.258;2022-07-25T04:13:59;11.65;;;7.28;;
72478;SDS011;60658;52.246;5.258;2022-07-25T04:14:59;11.02;;;8.10;;
72478;SDS011;60658;52.246;5.258;2022-07-25T04:16:00;9.80;;;7.13;;
72478;SDS011;60658;52.246;5.258;2022-07-25T04:17:01;9.45;;;6.72;;
72478;SDS011;60658;52.246;5.258;2022-07-25T04:18:01;9.32;;;7.38;;
72478;SDS011;60658;52.246;5.258;2022-07-25T04:19:02;10.45;;;7.60;;
72478;SDS011;60658;52.246;5.258;2022-07-25T04:20:03;9.80;;;6.50;;
72478;SDS011;60658;52.246;5.258;2022-07-25T04:21:04;11.88;;;7.32;;
72478;SDS011;60658;52.246;5.258;2022-07-25T04:22:05;9.43;;;7.55;;
72478;SDS011;60658;52.246;5.258;2022-07-25T04:23:05;10.07;;;6.63;;
72478;SDS011;60658;52.246;5.258;2022-07-25T04:24:08;10.85;;;6.60;;
72478;SDS011;60658;52.246;5.258;2022-07-25T04:25:08;10.80;;;6.95;;
72478;SDS011;60658;52.246;5.258;2022-07-25T04:26:09;10.32;;;6.72;;
72478;SDS011;60658;52.246;5.258;2022-07-25T04:27:09;9.98;;;6.35;;
72478;SDS011;60658;52.246;5.258;2022-07-25T04:28:10;10.73;;;6.88;;
72478;SDS011;60658;52.246;5.258;2022-07-25T04:29:11;10.65;;;6.55;;
72478;SDS011;60658;52.246;5.258;2022-07-25T04:30:12;11.95;;;6.85;;
72478;SDS011;60658;52.246;5.258;2022-07-25T04:31:13;9.50;;;6.55;;
72478;SDS011;60658;52.246;5.258;2022-07-25T04:32:15;12.43;;;7.30;;
72478;SDS011;60658;52.246;5.258;2022-07-25T04:33:16;13.48;;;6.90;;
72478;SDS011;60658;52.246;5.258;2022-07-25T04:34:17;10.52;;;7.15;;
72478;SDS011;60658;52.246;5.258;2022-07-25T04:35:18;10.18;;;7.43;;
72478;SDS011;60658;52.246;5.258;2022-07-25T04:36:18;12.07;;;7.47;;
72478;SDS011;60658;52.246;5.258;2022-07-25T04:37:19;10.20;;;7.45;;
72478;SDS011;60658;52.246;5.258;2022-07-25T04:38:20;11.07;;;8.50;;
72478;SDS011;60658;52.246;5.258;2022-07-25T04:39:22;10.13;;;7.63;;
72478;SDS011;60658;52.246;5.258;2022-07-25T04:40:22;10.32;;;7.35;;
72478;SDS011;60658;52.246;5.258;2022-07-25T04:41:23;11.20;;;7.45;;
72478;SDS011;60658;52.246;5.258;2022-07-25T04:42:26;9.90;;;7.45;;
72478;SDS011;60658;52.246;5.258;2022-07-25T04:43:27;9.55;;;7.20;;
72478;SDS011;60658;52.246;5.258;2022-07-25T04:44:28;11.25;;;7.75;;
72478;SDS011;60658;52.246;5.258;2022-07-25T04:45:28;11.43;;;8.02;;
72478;SDS011;60658;52.246;5.258;2022-07-25T04:46:29;12.88;;;8.13;;
72478;SDS011;60658;52.246;5.258;2022-07-25T04:47:30;10.90;;;7.95;;
72478;SDS011;60658;52.246;5.258;2022-07-25T04:48:30;9.82;;;7.85;;
72478;SDS011;60658;52.246;5.258;2022-07-25T04:49:31;9.38;;;7.13;;
72478;SDS011;60658;52.246;5.258;2022-07-25T04:50:32;17.02;;;8.43;;
72478;SDS011;60658;52.246;5.258;2022-07-25T04:51:33;20.08;;;8.45;;
72478;SDS011;60658;52.246;5.258;2022-07-25T04:52:33;15.38;;;8.23;;
72478;SDS011;60658;52.246;5.258;2022-07-25T04:53:34;12.80;;;7.60;;
72478;SDS011;60658;52.246;5.258;2022-07-25T04:54:36;11.07;;;7.25;;
72478;SDS011;60658;52.246;5.258;2022-07-25T04:55:37;12.98;;;7.53;;
72478;SDS011;60658;52.246;5.258;2022-07-25T04:56:37;9.07;;;7.10;;
72478;SDS011;60658;52.246;5.258;2022-07-25T04:57:39;10.93;;;7.20;;
72478;SDS011;60658;52.246;5.258;2022-07-25T04:58:40;11.20;;;7.93;;
72478;SDS011;60658;52.246;5.258;2022-07-25T04:59:40;11.05;;;8.40;;
72478;SDS011;60658;52.246;5.258;2022-07-25T05:00:41;8.63;;;6.88;;
72478;SDS011;60658;52.246;5.258;2022-07-25T05:01:42;9.95;;;8.35;;
72478;SDS011;60658;52.246;5.258;2022-07-25T05:02:43;11.50;;;7.65;;
72478;SDS011;60658;52.246;5.258;2022-07-25T05:03:43;10.18;;;7.30;;
72478;SDS011;60658;52.246;5.258;2022-07-25T05:04:44;10.45;;;7.70;;
72478;SDS011;60658;52.246;5.258;2022-07-25T05:05:44;12.07;;;8.32;;
72478;SDS011;60658;52.246;5.258;2022-07-25T05:06:45;12.18;;;8.18;;
72478;SDS011;60658;52.246;5.258;2022-07-25T05:07:54;11.02;;;8.82;;
72478;SDS011;60658;52.246;5.258;2022-07-25T05:08:55;10.82;;;8.23;;
72478;SDS011;60658;52.246;5.258;2022-07-25T05:09:57;14.50;;;8.23;;
72478;SDS011;60658;52.246;5.258;2022-07-25T05:10:57;11.85;;;8.50;;
72478;SDS011;60658;52.246;5.258;2022-07-25T05:11:58;13.90;;;8.48;;
72478;SDS011;60658;52.246;5.258;2022-07-25T05:12:59;12.02;;;7.57;;
72478;SDS011;60658;52.246;5.258;2022-07-25T05:13:59;10.38;;;8.38;;
72478;SDS011;60658;52.246;5.258;2022-07-25T05:15:00;12.88;;;8.57;;
72478;SDS011;60658;52.246;5.258;2022-07-25T05:16:00;9.65;;;8.00;;
72478;SDS011;60658;52.246;5.258;2022-07-25T05:17:01;12.75;;;8.60;;
72478;SDS011;60658;52.246;5.258;2022-07-25T05:18:02;13.70;;;9.07;;
72478;SDS011;60658;52.246;5.258;2022-07-25T05:19:02;12.68;;;8.55;;
72478;SDS011;60658;52.246;5.258;2022-07-25T05:20:04;13.15;;;8.32;;
72478;SDS011;60658;52.246;5.258;2022-07-25T05:21:08;15.15;;;9.07;;
72478;SDS011;60658;52.246;5.258;2022-07-25T05:22:08;11.13;;;8.40;;
72478;SDS011;60658;52.246;5.258;2022-07-25T05:23:12;10.70;;;8.15;;
72478;SDS011;60658;52.246;5.258;2022-07-25T05:24:13;13.82;;;9.50;;
72478;SDS011;60658;52.246;5.258;2022-07-25T05:25:15;11.82;;;8.43;;
72478;SDS011;60658;52.246;5.258;2022-07-25T05:26:16;13.25;;;8.23;;
72478;SDS011;60658;52.246;5.258;2022-07-25T05:27:16;11.63;;;7.70;;
72478;SDS011;60658;52.246;5.258;2022-07-25T05:28:17;12.48;;;9.07;;
72478;SDS011;60658;52.246;5.258;2022-07-25T05:29:18;12.43;;;9.02;;
72478;SDS011;60658;52.246;5.258;2022-07-25T05:30:18;11.82;;;8.48;;
72478;SDS011;60658;52.246;5.258;2022-07-25T05:31:19;10.32;;;8.70;;
72478;SDS011;60658;52.246;5.258;2022-07-25T05:32:20;11.70;;;8.63;;
72478;SDS011;60658;52.246;5.258;2022-07-25T05:33:20;13.85;;;9.07;;
72478;SDS011;60658;52.246;5.258;2022-07-25T05:34:21;11.77;;;8.48;;
72478;SDS011;60658;52.246;5.258;2022-07-25T05:35:22;14.07;;;8.60;;
72478;SDS011;60658;52.246;5.258;2022-07-25T05:36:23;11.85;;;8.30;;
72478;SDS011;60658;52.246;5.258;2022-07-25T05:37:24;14.90;;;8.95;;
72478;SDS011;60658;52.246;5.258;2022-07-25T05:38:24;12.30;;;8.65;;
72478;SDS011;60658;52.246;5.258;2022-07-25T05:39:25;11.70;;;8.25;;
72478;SDS011;60658;52.246;5.258;2022-07-25T05:40:27;12.20;;;8.77;;
72478;SDS011;60658;52.246;5.258;2022-07-25T05:41:28;12.13;;;8.73;;
72478;SDS011;60658;52.246;5.258;2022-07-25T05:42:31;12.13;;;8.80;;
72478;SDS011;60658;52.246;5.258;2022-07-25T05:43:31;11.93;;;8.52;;
72478;SDS011;60658;52.246;5.258;2022-07-25T05:44:32;11.95;;;8.52;;
72478;SDS011;60658;52.246;5.258;2022-07-25T05:45:33;15.63;;;8.82;;
72478;SDS011;60658;52.246;5.258;2022-07-25T05:46:34;13.50;;;8.52;;
72478;SDS011;60658;52.246;5.258;2022-07-25T05:47:35;14.43;;;9.35;;
72478;SDS011;60658;52.246;5.258;2022-07-25T05:48:35;12.73;;;8.45;;
72478;SDS011;60658;52.246;5.258;2022-07-25T05:49:36;13.18;;;8.40;;
72478;SDS011;60658;52.246;5.258;2022-07-25T05:50:36;13.10;;;9.60;;
72478;SDS011;60658;52.246;5.258;2022-07-25T05:51:37;16.90;;;9.40;;
72478;SDS011;60658;52.246;5.258;2022-07-25T05:52:38;13.05;;;9.10;;
72478;SDS011;60658;52.246;5.258;2022-07-25T05:53:38;13.80;;;8.57;;
72478;SDS011;60658;52.246;5.258;2022-07-25T05:54:39;15.57;;;8.93;;
72478;SDS011;60658;52.246;5.258;2022-07-25T05:55:41;13.07;;;8.30;;
72478;SDS011;60658;52.246;5.258;2022-07-25T05:56:42;12.68;;;8.30;;
72478;SDS011;60658;52.246;5.258;2022-07-25T05:57:42;11.63;;;7.75;;
72478;SDS011;60658;52.246;5.258;2022-07-25T05:58:43;12.95;;;8.38;;
72478;SDS011;60658;52.246;5.258;2022-07-25T05:59:44;10.20;;;7.60;;
72478;SDS011;60658;52.246;5.258;2022-07-25T06:00:45;10.48;;;7.57;;
72478;SDS011;60658;52.246;5.258;2022-07-25T06:01:45;11.50;;;7.63;;
72478;SDS011;60658;52.246;5.258;2022-07-25T06:02:46;11.38;;;7.22;;
72478;SDS011;60658;52.246;5.258;2022-07-25T06:03:47;10.27;;;7.55;;
72478;SDS011;60658;52.246;5.258;2022-07-25T06:04:47;11.32;;;6.80;;
72478;SDS011;60658;52.246;5.258;2022-07-25T06:05:51;9.15;;;6.65;;